createdAt,value
2023-03-06T00:01:50.681Z,62.84
2023-03-06T00:04:37.505Z,62.73
2023-03-06T00:07:24.328Z,62.80
2023-03-06T00:10:14.804Z,62.94
2023-03-06T00:13:04.529Z,62.82
2023-03-06T00:15:51.413Z,62.73
2023-03-06T00:18:38.332Z,63.14
2023-03-06T00:21:25.092Z,62.62
2023-03-06T00:24:11.906Z,63.03
2023-03-06T00:26:58.729Z,62.68
2023-03-06T00:29:45.561Z,62.91
2023-03-06T00:32:32.453Z,62.98
2023-03-06T00:35:19.365Z,62.97
2023-03-06T00:38:06.232Z,62.64
2023-03-06T00:40:53.039Z,62.81
2023-03-06T00:43:39.868Z,62.82
2023-03-06T00:46:26.661Z,62.52
2023-03-06T00:49:13.436Z,63.02
2023-03-06T00:52:00.328Z,62.63
2023-03-06T00:54:47.118Z,63.30
2023-03-06T00:57:33.933Z,62.91
2023-03-06T01:00:20.955Z,62.94
2023-03-06T01:03:07.891Z,63.03
2023-03-06T01:05:54.704Z,62.86
2023-03-06T01:08:41.517Z,63.03
2023-03-06T01:11:28.289Z,63.16
2023-03-06T01:14:15.039Z,63.06
2023-03-06T01:17:01.871Z,62.69
2023-03-06T01:19:48.819Z,63.00
2023-03-06T01:22:35.619Z,62.89
2023-03-06T01:25:24.775Z,62.85
2023-03-06T01:28:11.546Z,63.10
2023-03-06T01:30:58.316Z,62.97
2023-03-06T01:33:45.185Z,62.83
2023-03-06T01:36:32.007Z,63.06
2023-03-06T01:39:18.767Z,62.97
2023-03-06T01:42:05.622Z,62.94
2023-03-06T01:45:03.873Z,63.04
2023-03-06T01:47:50.731Z,62.97
2023-03-06T01:50:37.592Z,62.93
2023-03-06T01:53:24.512Z,63.07
2023-03-06T01:56:12.805Z,63.32
2023-03-06T01:58:59.774Z,62.99
2023-03-06T02:01:47.128Z,63.18
2023-03-06T02:04:34.286Z,63.13
2023-03-06T02:07:21.426Z,63.19
2023-03-06T02:10:09.229Z,63.04
2023-03-06T02:12:56.151Z,62.99
2023-03-06T02:15:43.003Z,63.20
2023-03-06T02:18:30.416Z,63.37
2023-03-06T02:21:24.569Z,63.08
2023-03-06T02:24:47.146Z,63.30
2023-03-06T02:27:33.942Z,63.23
2023-03-06T02:30:22.236Z,63.24
2023-03-06T02:33:15.021Z,63.34
2023-03-06T02:36:05.247Z,62.94
2023-03-06T02:38:52.432Z,63.04
2023-03-06T02:41:39.298Z,63.12
2023-03-06T02:44:26.567Z,62.82
2023-03-06T02:47:13.438Z,63.22
2023-03-06T02:50:00.222Z,63.05
2023-03-06T02:52:47.186Z,63.26
2023-03-06T02:55:34.356Z,62.81
2023-03-06T02:58:21.232Z,63.27
2023-03-06T03:01:08.463Z,63.06
2023-03-06T03:03:55.284Z,63.41
2023-03-06T03:06:42.103Z,63.15
2023-03-06T03:09:28.891Z,63.09
2023-03-06T03:12:15.728Z,63.00
2023-03-06T03:15:02.590Z,63.13
2023-03-06T03:17:49.407Z,63.08
2023-03-06T03:20:36.196Z,62.96
2023-03-06T03:23:23.740Z,63.22
2023-03-06T03:26:17.033Z,62.87
2023-03-06T03:29:05.072Z,63.50
2023-03-06T03:31:51.848Z,62.96
2023-03-06T03:34:38.608Z,62.72
2023-03-06T03:37:25.393Z,63.30
2023-03-06T03:40:12.656Z,62.84
2023-03-06T03:42:59.777Z,62.95
2023-03-06T03:45:46.603Z,63.31
2023-03-06T03:48:33.337Z,63.30
2023-03-06T03:51:20.226Z,63.02
2023-03-06T03:54:07.083Z,62.92
2023-03-06T03:56:53.949Z,63.32
2023-03-06T03:59:40.825Z,63.29
2023-03-06T04:02:27.647Z,63.26
2023-03-06T04:05:15.865Z,63.16
2023-03-06T04:08:03.191Z,63.28
2023-03-06T04:10:52.441Z,63.13
2023-03-06T04:13:39.139Z,62.93
2023-03-06T04:16:26.042Z,63.28
2023-03-06T04:19:12.813Z,63.29
2023-03-06T04:21:59.603Z,62.97
2023-03-06T04:24:49.582Z,62.96
2023-03-06T04:27:36.349Z,63.05
2023-03-06T04:30:24.667Z,63.10
2023-03-06T04:33:11.783Z,63.24
2023-03-06T04:35:58.627Z,62.99
2023-03-06T04:38:45.410Z,63.33
2023-03-06T04:41:32.243Z,63.01
2023-03-06T04:44:19.244Z,62.89
2023-03-06T04:47:06.325Z,62.83
2023-03-06T04:49:53.125Z,62.99
2023-03-06T04:52:42.810Z,63.38
2023-03-06T04:55:31.080Z,63.55
2023-03-06T04:58:17.876Z,63.44
2023-03-06T05:01:04.772Z,63.26
2023-03-06T05:03:51.635Z,62.90
2023-03-06T05:06:38.393Z,63.32
2023-03-06T05:09:25.175Z,63.14
2023-03-06T05:12:11.970Z,63.16
2023-03-06T05:14:58.757Z,63.28
2023-03-06T05:17:46.475Z,63.09
2023-03-06T05:20:33.731Z,62.86
2023-03-06T05:23:20.602Z,63.18
2023-03-06T05:26:09.603Z,63.57
2023-03-06T05:28:56.393Z,63.12
2023-03-06T05:31:43.259Z,63.57
2023-03-06T05:34:30.039Z,63.10
2023-03-06T05:37:18.337Z,63.38
2023-03-06T05:40:06.724Z,63.05
2023-03-06T05:42:53.500Z,63.70
2023-03-06T05:45:40.862Z,63.45
2023-03-06T05:48:27.658Z,63.09
2023-03-06T05:51:14.543Z,63.17
2023-03-06T05:54:03.637Z,63.45
2023-03-06T05:56:51.319Z,63.00
2023-03-06T05:59:40.566Z,63.33
2023-03-06T06:02:27.476Z,62.88
2023-03-06T06:05:14.544Z,63.31
2023-03-06T06:08:02.535Z,63.49
2023-03-06T06:10:51.453Z,63.12
2023-03-06T06:13:40.100Z,63.39
2023-03-06T06:16:26.864Z,63.33
2023-03-06T06:19:20.311Z,63.41
2023-03-06T06:22:07.337Z,63.44
2023-03-06T06:24:54.201Z,63.64
2023-03-06T06:27:41.041Z,63.38
2023-03-06T06:30:27.851Z,63.37
2023-03-06T06:33:14.681Z,63.38
2023-03-06T06:36:01.521Z,63.80
2023-03-06T06:38:48.956Z,63.38
2023-03-06T06:41:54.798Z,63.30
2023-03-06T06:44:43.495Z,63.83
2023-03-06T06:47:30.332Z,63.70
2023-03-06T06:50:17.154Z,63.60
2023-03-06T06:53:04.218Z,63.18
2023-03-06T06:55:51.443Z,63.18
2023-03-06T06:58:42.144Z,63.66
2023-03-06T07:01:29.267Z,63.69
2023-03-06T07:04:16.726Z,63.29
2023-03-06T07:07:03.609Z,63.88
2023-03-06T07:09:50.414Z,63.28
2023-03-06T07:12:37.409Z,63.44
2023-03-06T07:15:30.818Z,63.44
2023-03-06T07:18:17.595Z,63.66
2023-03-06T07:21:04.989Z,63.25
2023-03-06T07:23:51.834Z,63.63
2023-03-06T07:26:38.644Z,63.41
2023-03-06T07:29:25.410Z,63.93
2023-03-06T07:32:12.409Z,63.49
2023-03-06T07:35:18.770Z,63.62
2023-03-06T07:38:06.158Z,63.63
2023-03-06T07:40:53.020Z,63.73
2023-03-06T07:43:44.181Z,63.82
2023-03-06T07:46:31.144Z,63.50
2023-03-06T07:49:18.221Z,63.69
2023-03-06T07:55:23.782Z,63.83
2023-03-06T07:58:10.577Z,63.50
2023-03-06T08:00:57.381Z,64.13
2023-03-06T08:03:44.755Z,63.80
2023-03-06T08:06:32.344Z,63.46
2023-03-06T08:09:19.120Z,63.85
2023-03-06T08:12:08.124Z,63.90
2023-03-06T08:14:55.036Z,63.92
2023-03-06T08:17:41.840Z,64.72
2023-03-06T08:20:28.635Z,63.95
2023-03-06T08:23:15.423Z,64.59
2023-03-06T08:26:05.424Z,64.26
2023-03-06T08:28:53.699Z,64.69
2023-03-06T08:31:42.588Z,64.19
2023-03-06T08:34:29.443Z,64.56
2023-03-06T08:37:16.266Z,64.71
2023-03-06T08:40:06.697Z,64.35
2023-03-06T08:42:53.446Z,64.39
2023-03-06T08:45:40.334Z,64.96
2023-03-06T08:48:27.264Z,64.51
2023-03-06T08:51:16.566Z,64.70
2023-03-06T08:54:03.334Z,64.85
2023-03-06T08:56:50.107Z,64.76
2023-03-06T08:59:36.941Z,64.47
2023-03-06T09:02:23.761Z,64.38
2023-03-06T09:05:10.917Z,65.07
2023-03-06T09:07:57.768Z,65.12
2023-03-06T09:10:48.249Z,64.76
2023-03-06T09:13:35.563Z,64.99
2023-03-06T09:16:22.831Z,64.62
2023-03-06T09:19:10.259Z,64.73
2023-03-06T09:21:57.891Z,65.01
2023-03-06T09:24:47.712Z,64.82
2023-03-06T09:27:34.666Z,64.98
2023-03-06T09:30:21.463Z,64.81
2023-03-06T09:33:08.263Z,65.29
2023-03-06T09:35:58.592Z,65.30
2023-03-06T09:38:47.775Z,64.90
2023-03-06T09:41:37.120Z,65.13
2023-03-06T09:44:27.592Z,64.62
2023-03-06T09:47:50.461Z,65.08
2023-03-06T09:51:01.454Z,65.11
2023-03-06T09:53:52.630Z,65.23
2023-03-06T09:56:49.485Z,65.20
2023-03-06T09:59:36.400Z,64.92
2023-03-06T10:03:04.259Z,65.05
2023-03-06T10:05:58.027Z,64.58
2023-03-06T10:09:17.570Z,64.64
2023-03-06T10:12:06.708Z,64.87
2023-03-06T10:15:02.706Z,65.21
2023-03-06T10:17:49.962Z,64.91
2023-03-06T10:21:00.955Z,64.86
2023-03-06T10:23:58.148Z,64.79
2023-03-06T10:26:49.890Z,64.97
2023-03-06T10:30:01.711Z,64.60
2023-03-06T10:33:17.384Z,64.83
2023-03-06T10:36:07.040Z,64.34
2023-03-06T10:38:55.733Z,64.60
2023-03-06T10:41:43.312Z,64.88
2023-03-06T10:44:31.398Z,64.68
2023-03-06T10:47:28.566Z,64.45
2023-03-06T10:50:24.265Z,64.71
2023-03-06T10:53:31.355Z,64.50
2023-03-06T10:56:40.534Z,64.41
2023-03-06T10:59:29.234Z,64.55
2023-03-06T11:02:26.226Z,64.27
2023-03-06T11:05:22.305Z,64.50
2023-03-06T11:08:21.641Z,64.35
2023-03-06T11:11:09.533Z,64.41
2023-03-06T11:13:58.753Z,64.11
2023-03-06T11:16:59.569Z,64.46
2023-03-06T11:19:46.382Z,64.41
2023-03-06T11:22:34.226Z,64.56
2023-03-06T11:29:03.350Z,64.49
2023-03-06T11:32:09.457Z,64.24
2023-03-06T11:35:04.929Z,64.00
2023-03-06T11:38:11.129Z,64.61
2023-03-06T11:41:00.414Z,64.48
2023-03-06T11:43:47.078Z,64.56
2023-03-06T11:46:59.348Z,63.98
2023-03-06T11:49:55.326Z,64.00
2023-03-06T11:52:55.518Z,64.34
2023-03-06T11:55:54.689Z,64.20
2023-03-06T11:58:53.758Z,64.24
2023-03-06T12:02:05.033Z,64.21
2023-03-06T12:05:10.193Z,63.97
2023-03-06T12:08:21.286Z,63.92
2023-03-06T12:14:20.121Z,64.05
2023-03-06T12:17:35.065Z,64.15
2023-03-06T12:20:42.857Z,63.99
2023-03-06T12:23:52.112Z,63.92
2023-03-06T12:26:41.791Z,64.00
2023-03-06T12:29:39.496Z,64.19
2023-03-06T12:32:46.428Z,64.00
2023-03-06T12:35:51.754Z,63.89
2023-03-06T12:39:02.203Z,63.98
2023-03-06T12:42:23.400Z,63.96
2023-03-06T12:45:41.470Z,64.08
2023-03-06T12:48:33.265Z,63.87
2023-03-06T12:51:20.625Z,63.97
2023-03-06T12:54:09.471Z,63.91
2023-03-06T12:56:57.753Z,63.81
2023-03-06T12:59:47.943Z,63.77
2023-03-06T13:02:56.767Z,63.95
2023-03-06T13:06:08.174Z,64.18
2023-03-06T13:09:15.349Z,63.93
2023-03-06T13:12:11.206Z,64.12
2023-03-06T13:15:00.481Z,64.11
2023-03-06T13:17:47.207Z,64.04
2023-03-06T13:20:44.446Z,64.12
2023-03-06T13:23:37.322Z,64.09
2023-03-06T13:26:24.071Z,64.13
2023-03-06T13:29:35.845Z,64.25
2023-03-06T13:32:30.060Z,63.76
2023-03-06T13:35:32.244Z,64.15
2023-03-06T13:38:36.514Z,64.17
2023-03-06T13:41:23.217Z,64.23
2023-03-06T13:44:25.234Z,64.10
2023-03-06T13:47:35.653Z,64.47
2023-03-06T13:50:43.192Z,64.17
2023-03-06T13:54:06.730Z,64.21
2023-03-06T13:57:15.993Z,63.92
2023-03-06T14:00:18.943Z,63.92
2023-03-06T14:03:18.752Z,64.00
2023-03-06T14:06:37.338Z,63.85
2023-03-06T14:09:30.461Z,64.03
2023-03-06T14:12:19.126Z,64.24
2023-03-06T14:15:17.118Z,64.04
2023-03-06T14:18:08.058Z,64.31
2023-03-06T14:20:57.900Z,64.33
2023-03-06T14:23:49.559Z,63.90
2023-03-06T14:26:44.070Z,64.13
2023-03-06T14:29:33.008Z,64.32
2023-03-06T14:32:21.732Z,64.18
2023-03-06T14:35:20.276Z,64.13
2023-03-06T14:38:13.520Z,63.82
2023-03-06T14:41:07.897Z,64.15
2023-03-06T14:44:08.414Z,64.06
2023-03-06T14:52:12.431Z,63.65
2023-03-06T14:55:43.179Z,64.16
2023-03-06T15:03:50.637Z,64.10
2023-03-06T15:07:27.303Z,63.92
2023-03-06T15:13:27.565Z,63.44
2023-03-06T15:16:43.561Z,63.88
2023-03-06T15:20:06.216Z,63.83
2023-03-06T15:22:59.574Z,63.83
2023-03-06T15:32:42.657Z,63.50
2023-03-06T15:35:30.577Z,63.24
2023-03-06T15:42:20.240Z,63.63
2023-03-06T15:45:16.032Z,63.61
2023-03-06T15:48:09.070Z,63.50
2023-03-06T15:50:58.641Z,63.37
2023-03-06T15:55:54.822Z,62.75
2023-03-06T15:58:47.343Z,61.19
2023-03-06T16:01:36.207Z,60.98
2023-03-06T16:04:26.109Z,60.54
2023-03-06T16:07:15.774Z,61.22
2023-03-06T16:10:03.557Z,61.06
2023-03-06T16:12:59.587Z,61.16
2023-03-06T16:15:51.733Z,61.43
2023-03-06T16:18:38.737Z,61.59
2023-03-06T16:21:28.525Z,61.45
2023-03-06T16:24:17.625Z,61.81
2023-03-06T16:27:05.112Z,61.74
2023-03-06T16:29:56.853Z,61.92
2023-03-06T16:32:48.400Z,61.60
2023-03-06T16:35:38.261Z,61.43
2023-03-06T16:38:33.542Z,61.30
2023-03-06T16:41:23.210Z,61.48
2023-03-06T16:44:12.815Z,61.61
2023-03-06T16:47:01.050Z,61.36
2023-03-06T16:49:52.098Z,61.26
2023-03-06T16:52:44.557Z,61.25
2023-03-06T16:55:32.225Z,61.17
2023-03-06T16:58:28.123Z,61.21
2023-03-06T17:01:20.159Z,61.24
2023-03-06T17:04:33.359Z,61.02
2023-03-06T17:07:29.263Z,61.33
2023-03-06T17:10:18.856Z,61.14
2023-03-06T17:13:07.643Z,61.51
2023-03-06T17:16:01.638Z,61.02
2023-03-06T17:18:50.044Z,61.27
2023-03-06T17:21:38.607Z,61.42
2023-03-06T17:24:30.440Z,61.08
2023-03-06T17:27:21.670Z,61.12
2023-03-06T17:30:12.028Z,61.29
2023-03-06T17:32:59.019Z,61.11
2023-03-06T17:35:45.882Z,61.27
2023-03-06T17:38:38.731Z,61.73
2023-03-06T17:41:27.029Z,61.23
2023-03-06T17:44:16.443Z,61.06
2023-03-06T17:47:11.079Z,61.27
2023-03-06T17:49:58.043Z,61.10
2023-03-06T17:52:45.902Z,61.16
2023-03-06T17:55:32.793Z,61.23
2023-03-06T17:58:19.778Z,61.39
2023-03-06T18:01:16.012Z,60.96
2023-03-06T18:04:03.832Z,60.94
2023-03-06T18:06:50.641Z,60.82
2023-03-06T18:09:37.617Z,61.15
2023-03-06T18:12:24.562Z,60.61
2023-03-06T18:15:11.638Z,60.90
2023-03-06T18:18:03.987Z,61.16
2023-03-06T18:20:55.022Z,60.91
2023-03-06T18:23:42.162Z,61.18
2023-03-06T18:26:34.136Z,61.03
2023-03-06T18:29:21.022Z,60.54
2023-03-06T18:32:10.891Z,60.84
2023-03-06T18:35:08.087Z,60.69
2023-03-06T18:37:55.417Z,61.10
2023-03-06T18:40:50.500Z,60.92
2023-03-06T18:43:37.684Z,60.88
2023-03-06T18:46:25.975Z,61.02
2023-03-06T18:49:23.313Z,60.85
2023-03-06T18:52:19.673Z,60.88
2023-03-06T18:55:06.659Z,60.85
2023-03-06T18:57:53.590Z,60.98
2023-03-06T19:00:40.619Z,61.08
2023-03-06T19:03:31.019Z,61.12
2023-03-06T19:06:27.870Z,60.63
2023-03-06T19:09:51.676Z,60.94
2023-03-06T19:13:21.085Z,60.94
2023-03-06T19:16:33.584Z,60.58
2023-03-06T19:22:43.438Z,61.08
2023-03-06T19:25:38.848Z,60.88
2023-03-06T19:32:19.058Z,60.61
2023-03-06T19:35:39.682Z,60.42
2023-03-06T19:38:27.030Z,60.37
2023-03-06T19:41:19.947Z,60.68
2023-03-06T19:44:29.046Z,60.63
2023-03-06T19:47:18.231Z,60.50
2023-03-06T19:50:54.101Z,60.31
2023-03-06T19:53:46.189Z,60.22
2023-03-06T19:56:56.834Z,60.17
2023-03-06T19:59:58.480Z,60.39
2023-03-06T20:02:45.631Z,60.42
2023-03-06T20:05:33.062Z,60.28
2023-03-06T20:08:28.267Z,60.08
2023-03-06T20:11:35.216Z,60.17
2023-03-06T20:14:46.795Z,60.05
2023-03-06T20:17:48.531Z,60.46
2023-03-06T20:20:41.365Z,60.38
2023-03-06T20:23:33.708Z,60.26
2023-03-06T20:26:29.033Z,60.02
2023-03-06T20:29:22.259Z,59.85
2023-03-06T20:32:14.933Z,60.03
2023-03-06T20:35:02.892Z,60.48
2023-03-06T20:37:57.854Z,60.10
2023-03-06T20:40:44.982Z,60.02
2023-03-06T20:43:31.911Z,60.32
2023-03-06T20:46:20.905Z,60.24
2023-03-06T20:49:08.442Z,59.94
2023-03-06T20:51:57.841Z,60.00
2023-03-06T20:54:50.415Z,60.42
2023-03-06T20:57:53.507Z,60.02
2023-03-06T21:00:41.446Z,60.10
2023-03-06T21:03:29.255Z,59.88
2023-03-06T21:06:16.846Z,60.05
2023-03-06T21:09:07.727Z,60.21
2023-03-06T21:11:54.825Z,60.05
2023-03-06T21:14:48.923Z,59.80
2023-03-06T21:17:38.907Z,60.09
2023-03-06T21:20:28.342Z,60.17
2023-03-06T21:23:23.002Z,60.38
2023-03-06T21:26:31.274Z,60.00
2023-03-06T21:29:24.723Z,60.33
2023-03-06T21:32:14.282Z,59.88
2023-03-06T21:35:01.244Z,60.03
2023-03-06T21:37:56.093Z,60.01
2023-03-06T21:40:43.123Z,60.24
2023-03-06T21:43:29.931Z,59.98
2023-03-06T21:46:16.935Z,59.96
2023-03-06T21:49:07.692Z,60.20
2023-03-06T21:52:00.128Z,59.87
2023-03-06T21:54:51.004Z,60.21
2023-03-06T21:57:37.908Z,60.13
2023-03-06T22:00:27.164Z,60.15
2023-03-06T22:03:16.206Z,60.34
2023-03-06T22:06:19.240Z,59.89
2023-03-06T22:09:06.932Z,59.98
2023-03-06T22:12:00.322Z,60.01
2023-03-06T22:14:47.620Z,60.31
2023-03-06T22:17:34.509Z,59.76
2023-03-06T22:20:21.565Z,59.96
2023-03-06T22:26:12.475Z,60.40
2023-03-06T22:28:59.524Z,59.68
2023-03-06T22:31:49.945Z,60.27
2023-03-06T22:34:36.825Z,60.07
2023-03-06T22:37:23.715Z,60.13
2023-03-06T22:40:13.484Z,59.71
2023-03-06T22:43:03.570Z,60.31
2023-03-06T22:45:54.132Z,60.24
2023-03-06T22:48:44.496Z,59.86
2023-03-06T22:51:31.784Z,59.81
2023-03-06T22:54:18.628Z,59.77
2023-03-06T22:57:05.785Z,60.04
2023-03-06T22:59:52.653Z,59.91
2023-03-06T23:02:39.612Z,59.98
2023-03-06T23:05:29.578Z,59.89
2023-03-06T23:08:23.399Z,59.79
2023-03-06T23:11:12.914Z,60.10
2023-03-06T23:14:00.351Z,59.79
2023-03-06T23:16:47.317Z,59.71
2023-03-06T23:19:34.187Z,59.70
2023-03-06T23:22:26.746Z,60.05
2023-03-06T23:25:13.639Z,59.99
2023-03-06T23:28:01.750Z,59.61
2023-03-06T23:30:49.722Z,59.78
2023-03-06T23:33:38.744Z,59.59
2023-03-06T23:36:25.953Z,59.73
2023-03-06T23:39:13.355Z,59.61
2023-03-06T23:42:01.475Z,59.72
2023-03-06T23:44:50.825Z,59.70
2023-03-06T23:47:37.648Z,59.98
2023-03-06T23:50:26.058Z,59.95
2023-03-06T23:53:13.426Z,59.71
2023-03-06T23:56:02.283Z,60.19
2023-03-06T23:58:49.238Z,59.73
